Time;durP1;ratioP1;P1;durP2;ratioP2;P2;SDS_P1;SDS_P2;PMS_P1;PMS_P2;Temp;Humidity;BMP_temperature;BMP_pressure;BME280_temperature;BME280_humidity;BME280_pressure;Samples;Min_cycle;Max_cycle;Signal;HPM_P1;HPM_P2
2022/01/14 00:01:59;;;;;;;52.58;18.80;;;;;;;0.73;100.00;103527.63;5027336;28;20128;-66
2022/01/14 00:04:25;;;;;;;52.08;19.45;;;;;;;0.72;100.00;103528.50;5026221;28;20167;-65
2022/01/14 00:06:51;;;;;;;45.35;19.35;;;;;;;0.74;100.00;103513.97;5027397;28;20041;-65
2022/01/14 00:09:17;;;;;;;45.53;18.40;;;;;;;0.72;100.00;103520.84;5028960;28;20025;-65
2022/01/14 00:11:50;;;;;;;42.15;18.13;;;;;;;0.72;100.00;103518.28;5023370;28;20034;-65
2022/01/14 00:16:45;;;;;;;52.15;20.25;;;;;;;0.86;100.00;103519.75;5028016;28;20025;-65
2022/01/14 00:19:15;;;;;;;44.75;18.10;;;;;;;0.78;100.00;103510.50;5025717;28;20056;-66
2022/01/14 00:21:42;;;;;;;52.10;19.98;;;;;;;0.76;100.00;103516.53;5028973;28;20224;-66
2022/01/14 00:24:25;;;;;;;44.55;18.45;;;;;;;0.73;100.00;103508.91;5027417;28;20037;-65
2022/01/14 00:34:48;;;;;;;45.20;19.30;;;;;;;0.94;100.00;103494.91;5026341;28;20360;-65
2022/01/14 00:37:17;;;;;;;41.17;18.20;;;;;;;0.81;100.00;103508.75;5027640;28;20021;-65
2022/01/14 00:39:43;;;;;;;49.95;19.23;;;;;;;0.79;100.00;103501.13;5037453;28;20033;-65
2022/01/14 00:42:10;;;;;;;40.35;18.98;;;;;;;0.81;100.00;103509.63;5041999;28;20529;-65
2022/01/14 00:44:36;;;;;;;46.08;19.02;;;;;;;0.82;100.00;103502.78;5031140;28;20040;-65
2022/01/14 00:47:05;;;;;;;44.97;18.63;;;;;;;0.85;100.00;103502.72;5029282;28;20044;-66
2022/01/14 00:49:31;;;;;;;42.70;18.50;;;;;;;0.88;100.00;103498.41;5026093;28;20043;-65
2022/01/14 00:51:57;;;;;;;41.45;17.60;;;;;;;0.81;100.00;103501.97;5025513;28;20034;-66
2022/01/14 00:54:25;;;;;;;46.60;21.08;;;;;;;0.74;100.00;103508.88;5027223;28;20041;-65
2022/01/14 00:59:35;;;;;;;48.78;18.65;;;;;;;0.80;100.00;103514.75;5028434;28;20030;-66
2022/01/14 01:02:01;;;;;;;39.42;18.48;;;;;;;0.83;100.00;103502.78;5011139;28;20399;-66
2022/01/14 01:04:37;;;;;;;45.00;19.67;;;;;;;0.84;100.00;103508.72;5017837;28;20038;-65
2022/01/14 01:07:06;;;;;;;39.40;17.77;;;;;;;0.82;100.00;103513.84;5028487;28;20049;-66
2022/01/14 01:09:33;;;;;;;48.53;19.48;;;;;;;0.83;100.00;103513.00;5024200;28;20021;-65
2022/01/14 01:12:16;;;;;;;41.13;18.77;;;;;;;0.89;100.00;103515.44;5037999;28;20033;-65
2022/01/14 01:14:48;;;;;;;43.63;18.58;;;;;;;0.90;100.00;103504.31;5027092;28;20033;-65
2022/01/14 01:17:15;;;;;;;42.22;17.92;;;;;;;0.86;100.00;103496.75;5028905;28;20517;-65
2022/01/14 01:19:45;;;;;;;37.50;17.42;;;;;;;0.87;100.00;103495.91;5024421;28;20037;-65
2022/01/14 01:22:11;;;;;;;38.33;17.75;;;;;;;0.88;100.00;103505.25;5028128;28;20118;-66
2022/01/14 01:24:48;;;;;;;42.22;16.92;;;;;;;0.86;100.00;103507.81;5025629;28;20041;-65
2022/01/14 01:27:15;;;;;;;35.45;17.15;;;;;;;0.78;100.00;103500.28;5031162;28;20526;-65
2022/01/14 01:32:08;;;;;;;33.28;16.98;;;;;;;0.73;100.00;103503.78;5024359;28;20387;-65
2022/01/14 01:34:34;;;;;;;39.38;16.63;;;;;;;0.73;100.00;103501.22;5025158;28;20041;-66
2022/01/14 01:37:06;;;;;;;31.60;15.65;;;;;;;0.67;100.00;103501.34;5026779;28;20108;-65
2022/01/14 01:39:37;;;;;;;37.75;18.02;;;;;;;0.73;100.00;103503.78;5026059;28;20061;-65
2022/01/14 01:42:06;;;;;;;33.70;16.00;;;;;;;0.67;100.00;103496.22;5026487;28;20041;-65
2022/01/14 01:44:34;;;;;;;37.42;16.13;;;;;;;0.63;100.00;103492.88;5027402;28;20053;-65
2022/01/14 01:47:00;;;;;;;31.70;15.80;;;;;;;0.63;100.00;103492.88;5026807;28;20037;-66
2022/01/14 01:49:29;;;;;;;30.40;15.23;;;;;;;0.63;100.00;103492.06;5026537;28;20034;-65
2022/01/14 01:51:56;;;;;;;33.55;16.90;;;;;;;0.63;100.00;103490.34;5023027;28;20033;-65
2022/01/14 01:54:22;;;;;;;33.22;16.58;;;;;;;0.61;100.00;103492.06;5024495;28;20040;-66
2022/01/14 01:56:51;;;;;;;32.83;15.85;;;;;;;0.61;100.00;103491.25;5026798;28;20041;-66
2022/01/14 01:59:19;;;;;;;35.13;16.58;;;;;;;0.63;100.00;103490.34;5026094;28;20095;-66
2022/01/14 02:01:45;;;;;;;36.40;16.25;;;;;;;0.61;100.00;103486.13;5025294;28;20036;-65
2022/01/14 02:04:12;;;;;;;30.10;15.50;;;;;;;0.60;100.00;103494.66;5026719;28;20040;-64
2022/01/14 02:06:39;;;;;;;35.45;16.58;;;;;;;0.61;100.00;103486.97;5025503;28;20081;-65
2022/01/14 02:09:09;;;;;;;30.58;15.45;;;;;;;0.62;100.00;103487.81;5026157;28;20477;-65
2022/01/14 02:14:28;;;;;;;36.00;17.48;;;;;;;0.65;100.00;103482.66;4978004;28;20051;-67
2022/01/14 02:17:14;;;;;;;31.73;16.65;;;;;;;0.61;100.00;103479.31;4967017;28;20026;-68
2022/01/14 02:22:54;;;;;;;33.28;16.02;;;;;;;0.56;100.00;103484.47;4980123;28;20520;-68
2022/01/14 02:25:30;;;;;;;34.97;16.42;;;;;;;0.57;100.00;103477.69;4983827;28;20125;-67
2022/01/14 02:28:10;;;;;;;33.63;16.02;;;;;;;0.59;100.00;103481.03;4987568;28;20396;-68
2022/01/14 02:30:41;;;;;;;36.00;16.17;;;;;;;0.57;100.00;103485.34;4971984;28;20499;-67
2022/01/14 02:33:08;;;;;;;35.85;17.55;;;;;;;0.57;100.00;103491.28;4956941;28;20058;-67
2022/01/14 02:35:39;;;;;;;39.38;18.27;;;;;;;0.58;100.00;103484.44;4978266;28;20061;-67
2022/01/14 02:38:06;;;;;;;31.23;15.30;;;;;;;0.55;100.00;103480.25;4973802;28;20026;-67
2022/01/14 02:40:32;;;;;;;34.83;16.42;;;;;;;0.52;100.00;103477.72;4981275;28;20041;-68
2022/01/14 02:43:02;;;;;;;32.72;15.45;;;;;;;0.53;100.00;103478.59;4987976;28;20581;-67
2022/01/14 02:45:32;;;;;;;35.60;15.60;;;;;;;0.54;100.00;103475.16;4970816;28;20588;-67
2022/01/14 02:48:00;;;;;;;34.63;15.88;;;;;;;0.51;100.00;103473.50;4985149;28;20041;-68
2022/01/14 02:50:35;;;;;;;36.45;16.70;;;;;;;0.49;100.00;103465.03;4981102;28;20027;-68
2022/01/14 02:53:03;;;;;;;35.70;16.73;;;;;;;0.50;100.00;103464.16;4984222;28;20053;-67
2022/01/14 02:55:31;;;;;;;40.05;16.70;;;;;;;0.50;100.00;103460.75;4984492;28;20035;-67
2022/01/14 02:57:59;;;;;;;39.47;16.50;;;;;;;0.50;100.00;103460.75;4985421;28;20042;-68
2022/01/14 03:00:31;;;;;;;43.00;18.00;;;;;;;0.58;100.00;103457.22;4968861;28;20042;-67
2022/01/14 03:02:59;;;;;;;37.75;16.77;;;;;;;0.49;100.00;103466.72;4986915;28;20049;-68
2022/01/14 03:05:28;;;;;;;37.72;16.75;;;;;;;0.48;100.00;103459.94;4990693;28;20038;-68
2022/01/14 03:07:59;;;;;;;37.03;17.33;;;;;;;0.44;100.00;103451.50;4973682;28;20046;-68
2022/01/14 03:10:25;;;;;;;37.58;16.15;;;;;;;0.48;100.00;103442.91;4976313;28;20283;-67
2022/01/14 03:12:51;;;;;;;38.85;16.75;;;;;;;0.49;100.00;103444.59;4991419;28;20092;-68
2022/01/14 03:15:17;;;;;;;41.35;17.25;;;;;;;0.45;100.00;103449.78;4990300;28;20042;-67
2022/01/14 03:17:45;;;;;;;38.83;17.20;;;;;;;0.38;100.00;103444.78;4969686;28;20042;-67
2022/01/14 03:20:26;;;;;;;36.20;17.17;;;;;;;0.34;100.00;103442.28;4989909;28;20077;-68
2022/01/14 03:23:03;;;;;;;31.88;15.88;;;;;;;0.33;100.00;103440.63;4959975;28;20034;-67
2022/01/14 03:25:47;;;;;;;32.83;15.95;;;;;;;0.28;100.00;103440.66;4983471;28;20038;-67
2022/01/14 03:28:15;;;;;;;37.92;16.02;;;;;;;0.32;100.00;103434.69;5007988;28;20081;-67
2022/01/14 03:30:40;;;;;;;40.85;16.90;;;;;;;0.31;100.00;103439.81;4974881;28;20027;-68
2022/01/14 03:33:06;;;;;;;38.38;16.75;;;;;;;0.24;100.00;103433.09;4973389;28;20077;-67
2022/01/14 03:35:32;;;;;;;38.47;16.20;;;;;;;0.25;100.00;103442.47;4976801;28;20085;-68
2022/01/14 03:37:58;;;;;;;34.33;15.90;;;;;;;0.21;100.00;103431.44;4986940;28;20037;-67
2022/01/14 03:40:24;;;;;;;39.22;16.90;;;;;;;0.19;100.00;103420.44;4979187;28;20515;-68
2022/01/14 03:42:49;;;;;;;35.45;15.98;;;;;;;0.19;100.00;103415.31;4985414;28;20033;-67
2022/01/14 03:45:15;;;;;;;49.03;18.45;;;;;;;0.19;100.00;103423.81;4985742;28;20034;-67
2022/01/14 03:47:44;;;;;;;35.78;16.30;;;;;;;0.16;100.00;103418.75;5007936;28;20034;-67
2022/01/14 03:50:09;;;;;;;35.05;16.23;;;;;;;0.15;100.00;103411.09;4981562;28;20081;-67
2022/01/14 03:52:38;;;;;;;38.40;17.38;;;;;;;0.17;100.00;103411.94;5004228;28;20030;-68
2022/01/14 03:55:04;;;;;;;35.08;17.38;;;;;;;0.16;100.00;103413.66;4991694;28;20039;-67
2022/01/14 03:57:30;;;;;;;43.08;19.38;;;;;;;0.18;100.00;103409.34;4974451;28;20571;-68
2022/01/14 03:59:55;;;;;;;41.97;18.73;;;;;;;0.13;100.00;103412.84;4970506;28;20046;-67
2022/01/14 04:02:21;;;;;;;48.13;20.48;;;;;;;0.15;100.00;103409.44;4991830;28;20038;-67
2022/01/14 04:04:47;;;;;;;44.70;21.77;;;;;;;0.13;100.00;103408.63;4976955;28;20026;-68
2022/01/14 04:07:12;;;;;;;48.17;21.02;;;;;;;0.13;100.00;103403.50;4970734;28;20216;-67
2022/01/14 04:09:39;;;;;;;45.10;20.52;;;;;;;0.15;100.00;103400.91;4975184;28;20470;-68
2022/01/14 04:12:16;;;;;;;35.40;17.65;;;;;;;0.14;100.00;103400.06;4986369;28;20022;-68
2022/01/14 04:17:12;;;;;;;41.63;18.65;;;;;;;0.13;100.00;103393.31;4981151;28;20097;-68
2022/01/14 04:19:37;;;;;;;39.15;18.30;;;;;;;0.16;100.00;103395.78;4988737;28;20030;-67
2022/01/14 04:22:06;;;;;;;40.42;20.20;;;;;;;0.18;100.00;103390.66;4984781;28;20525;-68
2022/01/14 04:24:32;;;;;;;44.30;19.60;;;;;;;0.14;100.00;103389.03;4974253;28;20163;-68
2022/01/14 04:26:58;;;;;;;43.15;20.42;;;;;;;0.12;100.00;103400.97;4987224;28;20087;-67
2022/01/14 04:29:23;;;;;;;56.60;22.10;;;;;;;0.13;100.00;103397.53;4972024;28;20052;-68
2022/01/14 04:31:49;;;;;;;49.55;22.83;;;;;;;0.14;100.00;103402.63;4987921;28;20042;-68
2022/01/14 04:34:16;;;;;;;49.17;22.40;;;;;;;0.13;100.00;103397.53;4962237;28;20034;-67
2022/01/14 04:36:43;;;;;;;47.88;23.30;;;;;;;0.14;100.00;103401.78;4988560;28;20085;-68
2022/01/14 04:39:09;;;;;;;44.03;21.88;;;;;;;0.13;100.00;103398.41;4971642;28;20054;-68
2022/01/14 04:41:35;;;;;;;54.95;27.40;;;;;;;0.15;100.00;103399.22;4972169;28;20030;-68
2022/01/14 04:44:01;;;;;;;49.60;25.00;;;;;;;0.14;100.00;103392.41;4970148;28;20041;-68
2022/01/14 04:48:53;;;;;;;50.00;22.48;;;;;;;0.16;100.00;103374.53;4987562;28;20034;-67
2022/01/14 04:51:21;;;;;;;56.70;24.15;;;;;;;0.23;100.00;103381.22;4971453;28;20049;-67
2022/01/14 04:53:47;;;;;;;48.90;22.17;;;;;;;0.16;100.00;103371.97;4967463;28;20648;-68
2022/01/14 04:56:13;;;;;;;56.38;23.02;;;;;;;0.15;100.00;103385.59;4987658;28;20530;-68
2022/01/14 04:58:39;;;;;;;59.10;28.40;;;;;;;0.12;100.00;103380.56;4956327;28;20120;-67
2022/01/14 05:01:05;;;;;;;70.97;30.10;;;;;;;0.10;100.00;103382.28;4987604;28;20145;-67
2022/01/14 05:03:31;;;;;;;58.90;25.17;;;;;;;0.14;100.00;103369.44;4968795;28;20038;-68
2022/01/14 05:05:59;;;;;;;52.28;23.25;;;;;;;0.07;100.00;103372.13;5001390;28;20141;-67
2022/01/14 05:08:34;;;;;;;47.72;22.00;;;;;;;0.13;100.00;103377.13;4988071;28;20040;-68
2022/01/14 05:11:04;;;;;;;52.38;22.05;;;;;;;0.07;100.00;103360.19;4983364;28;20080;-67
2022/01/14 05:13:30;;;;;;;46.95;22.67;;;;;;;0.06;100.00;103365.31;4988485;28;20080;-68
2022/01/14 05:15:57;;;;;;;45.30;21.17;;;;;;;0.06;100.00;103365.31;4986796;28;20038;-68
2022/01/14 05:18:23;;;;;;;51.40;20.98;;;;;;;0.07;100.00;103375.50;4973344;28;20057;-67
2022/01/14 05:20:53;;;;;;;56.80;23.92;;;;;;;0.13;100.00;103377.13;4971954;28;20512;-68
2022/01/14 05:23:19;;;;;;;52.10;22.70;;;;;;;0.10;100.00;103378.03;4985517;28;20030;-68
2022/01/14 05:25:48;;;;;;;59.70;24.17;;;;;;;0.12;100.00;103380.56;4972560;28;20560;-67
2022/01/14 05:28:14;;;;;;;54.58;22.63;;;;;;;0.11;100.00;103372.03;4987289;28;20105;-67
2022/01/14 05:30:40;;;;;;;63.03;24.77;;;;;;;0.14;100.00;103373.72;4985646;28;20042;-68
2022/01/14 05:33:05;;;;;;;60.03;24.55;;;;;;;0.15;100.00;103375.38;4990854;28;20120;-68
2022/01/14 05:35:31;;;;;;;62.25;24.88;;;;;;;0.16;100.00;103366.88;4978025;28;20078;-68
2022/01/14 05:37:57;;;;;;;62.35;24.50;;;;;;;0.20;100.00;103365.94;4986796;28;20034;-67
2022/01/14 05:40:27;;;;;;;55.38;24.73;;;;;;;0.13;100.00;103372.88;4985954;28;20116;-68
2022/01/14 05:42:54;;;;;;;62.45;24.85;;;;;;;0.15;100.00;103370.28;4970244;28;20069;-67
2022/01/14 05:45:20;;;;;;;54.17;23.70;;;;;;;0.13;100.00;103370.34;4972871;28;20034;-68
2022/01/14 05:47:45;;;;;;;60.72;25.20;;;;;;;0.15;100.00;103377.94;4970453;28;20485;-68
2022/01/14 05:50:15;;;;;;;67.95;26.02;;;;;;;0.25;100.00;103376.94;4987600;28;20039;-68
2022/01/14 05:52:42;;;;;;;61.88;26.33;;;;;;;0.22;100.00;103378.69;4986936;28;20042;-68
2022/01/14 05:55:10;;;;;;;66.47;26.50;;;;;;;0.25;100.00;103369.28;4983298;28;20030;-68
2022/01/14 05:57:38;;;;;;;57.33;24.50;;;;;;;0.16;100.00;103383.03;4983662;28;20029;-68
2022/01/14 06:00:16;;;;;;;57.72;23.50;;;;;;;0.17;100.00;103386.41;5002239;28;20479;-68
2022/01/14 06:02:46;;;;;;;60.60;23.75;;;;;;;0.16;100.00;103382.19;4986556;28;20160;-68
2022/01/14 06:05:12;;;;;;;59.33;25.27;;;;;;;0.17;100.00;103376.19;4993033;28;20146;-67
2022/01/14 06:07:38;;;;;;;64.95;26.77;;;;;;;0.22;100.00;103376.13;4953179;28;20626;-67
2022/01/14 06:10:07;;;;;;;61.13;26.40;;;;;;;0.16;100.00;103375.38;4988927;28;20041;-68
2022/01/14 06:12:33;;;;;;;48.60;22.65;;;;;;;0.09;100.00;103378.88;4970165;28;20042;-68
2022/01/14 06:15:00;;;;;;;55.28;22.67;;;;;;;0.10;100.00;103377.19;4968514;28;20073;-68
2022/01/14 06:17:26;;;;;;;54.90;23.20;;;;;;;0.10;100.00;103380.56;4976737;28;20058;-68
2022/01/14 06:19:52;;;;;;;56.03;25.13;;;;;;;0.12;100.00;103389.03;4963919;28;20042;-68
2022/01/14 06:22:18;;;;;;;54.28;24.52;;;;;;;0.11;100.00;103384.78;4984240;28;20023;-68
2022/01/14 06:24:43;;;;;;;56.45;25.20;;;;;;;0.13;100.00;103383.09;4986740;28;20382;-67
2022/01/14 06:27:09;;;;;;;53.75;24.55;;;;;;;0.23;100.00;103380.34;4983418;28;20050;-68
2022/01/14 06:29:35;;;;;;;54.88;22.80;;;;;;;0.18;100.00;103383.00;4953620;28;20065;-68
2022/01/14 06:32:00;;;;;;;67.20;24.88;;;;;;;0.12;100.00;103381.38;4985148;28;20030;-68
2022/01/14 06:34:26;;;;;;;71.28;26.83;;;;;;;0.03;100.00;103386.63;4990407;28;20083;-67
2022/01/14 06:36:52;;;;;;;54.95;23.98;;;;;;;0.07;100.00;103387.44;5005028;28;20026;-68
2022/01/14 06:39:18;;;;;;;52.92;23.52;;;;;;;0.03;100.00;103380.72;4972682;28;20053;-68
2022/01/14 06:41:43;;;;;;;52.83;24.92;;;;;;;0.01;100.00;103373.06;4988427;28;20117;-68
2022/01/14 06:44:09;;;;;;;55.20;25.20;;;;;;;0.05;100.00;103376.41;4986883;28;20038;-68
2022/01/14 06:46:35;;;;;;;50.20;23.33;;;;;;;0.04;100.00;103373.03;4988132;28;20042;-68
2022/01/14 06:49:00;;;;;;;56.60;24.27;;;;;;;0.04;100.00;103378.13;4985605;28;20042;-68
2022/01/14 06:51:26;;;;;;;72.50;27.13;;;;;;;0.09;100.00;103370.38;4976365;28;20038;-68
2022/01/14 06:53:52;;;;;;;57.55;25.50;;;;;;;0.03;100.00;103373.06;4981253;28;20074;-68
2022/01/14 06:56:17;;;;;;;59.28;25.50;;;;;;;0.06;100.00;103367.88;4971976;28;20628;-68
2022/01/14 06:58:44;;;;;;;52.42;24.20;;;;;;;0.09;100.00;103371.22;5004369;28;20070;-68
2022/01/14 07:01:10;;;;;;;52.55;24.27;;;;;;;0.06;100.00;103370.44;4990435;28;20516;-68
2022/01/14 07:03:35;;;;;;;57.35;24.65;;;;;;;0.06;100.00;103358.53;4969211;28;20100;-67
2022/01/14 07:06:01;;;;;;;54.80;24.90;;;;;;;0.05;100.00;103361.94;4987561;28;20508;-68
2022/01/14 07:08:28;;;;;;;66.40;25.55;;;;;;;0.05;100.00;103364.50;4973622;28;20042;-68
2022/01/14 07:10:57;;;;;;;60.85;24.63;;;;;;;0.07;100.00;103367.84;4972027;28;20042;-68
2022/01/14 07:13:23;;;;;;;56.50;23.67;;;;;;;0.08;100.00;103368.72;4972645;28;20030;-68
2022/01/14 07:15:49;;;;;;;65.10;27.33;;;;;;;0.19;100.00;103357.47;4991190;28;20393;-68
2022/01/14 07:18:17;;;;;;;74.03;27.90;;;;;;;0.21;100.00;103349.78;4988892;28;20408;-68
2022/01/14 07:20:43;;;;;;;67.35;26.52;;;;;;;0.15;100.00;103357.53;4971954;28;20439;-67
2022/01/14 07:23:12;;;;;;;62.17;26.13;;;;;;;0.13;100.00;103356.72;4989171;28;20045;-67
2022/01/14 07:25:39;;;;;;;63.03;25.55;;;;;;;0.12;100.00;103355.88;4986640;28;20046;-69
2022/01/14 07:28:05;;;;;;;53.40;24.67;;;;;;;0.17;100.00;103368.53;4993018;28;20522;-68
2022/01/14 07:30:31;;;;;;;66.43;26.48;;;;;;;0.17;100.00;103356.66;4984999;28;20469;-67
2022/01/14 07:32:58;;;;;;;66.72;26.15;;;;;;;0.17;100.00;103363.44;4990787;28;20085;-67
2022/01/14 07:35:24;;;;;;;65.85;28.02;;;;;;;0.18;100.00;103365.97;4977769;28;20060;-68
2022/01/14 07:37:49;;;;;;;63.40;26.75;;;;;;;0.16;100.00;103371.97;4987955;28;20034;-68
2022/01/14 07:40:15;;;;;;;65.00;26.17;;;;;;;0.14;100.00;103374.56;4996078;28;20035;-68
2022/01/14 07:42:50;;;;;;;71.38;26.63;;;;;;;0.15;100.00;103377.94;4964691;28;20049;-67
2022/01/14 07:45:16;;;;;;;69.93;27.88;;;;;;;0.17;100.00;103377.06;4989562;28;20057;-67
2022/01/14 07:47:41;;;;;;;69.05;27.48;;;;;;;0.17;100.00;103381.31;4989076;28;20255;-67
2022/01/14 07:50:07;;;;;;;85.05;33.25;;;;;;;0.20;100.00;103365.94;4988609;28;20041;-68
2022/01/14 07:52:33;;;;;;;82.68;30.77;;;;;;;0.20;100.00;103363.41;4984459;28;20049;-68
2022/01/14 07:54:59;;;;;;;70.72;28.10;;;;;;;0.33;100.00;103367.41;4960769;28;20073;-68
2022/01/14 07:57:25;;;;;;;56.35;25.23;;;;;;;0.23;100.00;103365.91;4970811;28;20030;-67
2022/01/14 07:59:50;;;;;;;64.88;27.30;;;;;;;0.21;100.00;103375.31;4989772;28;20041;-68
2022/01/14 08:02:18;;;;;;;62.10;25.25;;;;;;;0.18;100.00;103372.78;4965139;28;20496;-68
2022/01/14 08:04:44;;;;;;;64.90;27.92;;;;;;;0.22;100.00;103373.59;4984652;28;20042;-67
2022/01/14 08:07:10;;;;;;;55.72;22.50;;;;;;;0.20;100.00;103368.50;4956870;28;20150;-68
2022/01/14 08:09:42;;;;;;;53.10;24.67;;;;;;;0.22;100.00;103373.59;4970496;28;20470;-68
2022/01/14 08:12:09;;;;;;;62.63;26.48;;;;;;;0.17;100.00;103378.75;4997177;23;20125;-77
2022/01/14 08:14:35;;;;;;;55.05;24.25;;;;;;;0.18;100.00;103373.63;5028433;28;20072;-77
2022/01/14 08:17:01;;;;;;;55.97;24.42;;;;;;;0.15;100.00;103366.03;5046249;28;20049;-77
2022/01/14 08:19:26;;;;;;;66.28;27.52;;;;;;;0.16;100.00;103361.78;5029519;28;20056;-77
2022/01/14 08:21:52;;;;;;;56.03;24.30;;;;;;;0.29;100.00;103354.75;5013393;28;20044;-77
2022/01/14 08:24:17;;;;;;;58.83;23.85;;;;;;;0.30;100.00;103354.72;5028701;28;20024;-77
2022/01/14 08:26:43;;;;;;;52.13;25.33;;;;;;;0.29;100.00;103354.75;5044540;28;20079;-77
2022/01/14 08:29:08;;;;;;;66.43;26.90;;;;;;;0.32;100.00;103353.00;5028608;28;20507;-77
2022/01/14 08:31:34;;;;;;;65.28;28.55;;;;;;;0.28;100.00;103350.50;5047707;28;20037;-77
2022/01/14 08:34:00;;;;;;;56.03;25.92;;;;;;;0.27;100.00;103364.97;5017122;28;20025;-77
2022/01/14 08:36:28;;;;;;;60.00;27.38;;;;;;;0.42;100.00;103366.44;5034129;28;20033;-77
2022/01/14 08:38:53;;;;;;;58.83;25.63;;;;;;;0.38;100.00;103363.09;5060363;28;20041;-77
2022/01/14 08:41:19;;;;;;;55.55;25.55;;;;;;;0.35;100.00;103373.34;5038246;28;20028;-77
2022/01/14 08:43:47;;;;;;;64.95;27.48;;;;;;;0.44;100.00;103369.78;5032961;28;20367;-77
2022/01/14 08:46:13;;;;;;;62.05;27.35;;;;;;;0.51;100.00;103371.38;5039602;28;20039;-78
2022/01/14 08:48:39;;;;;;;65.82;27.33;;;;;;;0.48;100.00;103371.41;5038707;28;20132;-78
2022/01/14 08:51:04;;;;;;;65.10;27.52;;;;;;;0.56;100.00;103364.44;5046010;28;20120;-78
2022/01/14 08:53:30;;;;;;;81.97;27.92;;;;;;;0.55;100.00;103349.19;5048152;28;20102;-78
2022/01/14 08:55:55;;;;;;;76.35;27.67;;;;;;;0.61;100.00;103353.34;5024605;28;20079;-78
2022/01/14 08:58:21;;;;;;;75.22;30.40;;;;;;;0.60;100.00;103356.75;5014390;28;20580;-78
2022/01/14 09:00:48;;;;;;;66.82;27.40;;;;;;;0.60;100.00;103354.19;5033896;28;20106;-77
2022/01/14 09:03:13;;;;;;;70.38;28.30;;;;;;;0.65;100.00;103350.69;5046491;28;20045;-78
2022/01/14 09:05:39;;;;;;;68.60;28.77;;;;;;;0.67;100.00;103353.22;5028008;28;20033;-78
2022/01/14 09:08:05;;;;;;;77.63;30.55;;;;;;;0.70;100.00;103351.44;5027931;28;20092;-78
2022/01/14 09:10:30;;;;;;;69.78;29.08;;;;;;;0.74;100.00;103352.22;5018646;28;20049;-78
2022/01/14 09:12:56;;;;;;;73.35;30.30;;;;;;;0.72;100.00;103354.81;5031612;28;20044;-78
2022/01/14 09:15:21;;;;;;;75.82;31.85;;;;;;;0.76;100.00;103351.31;5028391;28;20041;-78
2022/01/14 09:17:47;;;;;;;75.22;31.08;;;;;;;0.78;100.00;103356.41;5029263;28;20025;-78
2022/01/14 09:20:14;;;;;;;72.75;29.83;;;;;;;0.83;100.00;103351.19;5047989;28;20422;-78
2022/01/14 09:22:47;;;;;;;69.75;29.58;;;;;;;0.85;100.00;103360.53;5046275;28;20059;-78
2022/01/14 09:25:13;;;;;;;78.35;31.85;;;;;;;0.91;100.00;103354.44;5032168;28;20037;-77
2022/01/14 09:27:39;;;;;;;90.53;33.78;;;;;;;0.94;100.00;103362.91;5032844;28;20309;-78
2022/01/14 09:30:05;;;;;;;87.80;33.70;;;;;;;1.06;100.00;103363.53;5016501;28;20041;-77
2022/01/14 09:32:31;;;;;;;77.25;29.63;;;;;;;1.01;100.00;103378.09;5033645;28;20131;-79
2022/01/14 09:34:56;;;;;;;83.30;31.48;;;;;;;1.01;100.00;103384.03;5051278;28;20035;-80
2022/01/14 09:37:22;;;;;;;80.55;32.30;;;;;;;1.01;100.00;103383.22;5030552;28;20094;-78
2022/01/14 09:39:47;;;;;;;82.85;31.30;;;;;;;1.02;100.00;103378.06;5019253;28;20052;-78
2022/01/14 09:42:14;;;;;;;86.82;32.00;;;;;;;1.11;100.00;103372.78;5033301;28;20069;-78
2022/01/14 09:44:41;;;;;;;88.80;34.38;;;;;;;1.09;100.00;103396.66;5045109;28;20090;-78
2022/01/14 09:47:07;;;;;;;74.47;30.85;;;;;;;1.10;100.00;103396.63;5039091;28;20033;-78
2022/01/14 09:49:33;;;;;;;78.65;31.77;;;;;;;1.15;100.00;103401.66;5045281;28;20041;-78
2022/01/14 09:51:58;;;;;;;87.78;33.20;;;;;;;1.17;100.00;103413.53;5026983;28;20521;-78
2022/01/14 09:54:24;;;;;;;87.57;33.22;;;;;;;1.19;100.00;103416.06;5044422;28;20037;-78
2022/01/14 09:56:50;;;;;;;92.43;35.20;;;;;;;1.17;100.00;103408.44;5036129;28;20238;-77
2022/01/14 09:59:18;;;;;;;86.13;34.13;;;;;;;1.17;100.00;103416.09;5060662;28;20075;-78
2022/01/14 10:01:48;;;;;;;88.53;32.22;;;;;;;1.20;100.00;103410.06;5061729;28;20107;-77
2022/01/14 10:04:21;;;;;;;84.07;32.90;;;;;;;1.22;100.00;103423.66;5060099;28;20083;-78
2022/01/14 10:06:51;;;;;;;90.60;34.78;;;;;;;1.24;100.00;103427.03;5049478;28;20466;-78
2022/01/14 10:09:36;;;;;;;82.95;33.72;;;;;;;1.24;100.00;103429.56;5026920;28;20122;-78
2022/01/14 10:12:04;;;;;;;81.65;33.65;;;;;;;1.32;100.00;103434.56;5025453;28;20370;-77
2022/01/14 10:14:30;;;;;;;93.38;35.25;;;;;;;1.34;100.00;103427.69;5026055;28;20276;-78
2022/01/14 10:17:05;;;;;;;106.88;38.42;;;;;;;1.33;100.00;103424.28;5042569;28;20055;-78
2022/01/14 10:19:34;;;;;;;90.20;34.22;;;;;;;1.34;100.00;103432.81;5029076;28;20508;-78
2022/01/14 10:22:00;;;;;;;93.55;37.33;;;;;;;1.34;100.00;103414.91;5029052;28;20108;-78
2022/01/14 10:24:29;;;;;;;101.32;38.70;;;;;;;1.40;100.00;103408.81;5048309;28;20036;-77
2022/01/14 10:26:58;;;;;;;99.75;39.25;;;;;;;1.44;100.00;103410.44;5029139;28;20044;-78
2022/01/14 10:29:39;;;;;;;104.45;38.35;;;;;;;1.44;100.00;103415.56;5028961;28;20049;-78
2022/01/14 10:32:07;;;;;;;100.78;38.65;;;;;;;1.51;100.00;103414.56;5031536;28;20036;-78
2022/01/14 10:34:34;;;;;;;115.03;40.55;;;;;;;1.48;100.00;103406.94;5038942;28;20048;-78
2022/01/14 10:37:09;;;;;;;95.38;37.83;;;;;;;1.48;100.00;103401.81;5032646;28;20037;-78
2022/01/14 10:39:45;;;;;;;96.95;38.08;;;;;;;1.49;100.00;103403.53;5046434;28;20104;-77
2022/01/14 10:42:29;;;;;;;110.45;40.42;;;;;;;1.48;100.00;103402.66;5023786;28;20398;-78
2022/01/14 10:45:09;;;;;;;108.38;41.08;;;;;;;1.50;100.00;103385.56;5031533;28;20029;-78
2022/01/14 10:47:34;;;;;;;117.05;42.45;;;;;;;1.59;100.00;103401.59;5050346;28;20434;-78
2022/01/14 10:50:00;;;;;;;119.65;42.60;;;;;;;1.59;100.00;103387.09;5032174;28;20037;-78
2022/01/14 10:52:27;;;;;;;113.47;41.90;;;;;;;1.62;100.00;103387.03;5012949;28;20048;-77
2022/01/14 10:54:54;;;;;;;120.45;41.33;;;;;;;1.60;100.00;103375.13;5022204;28;20048;-78
2022/01/14 10:57:25;;;;;;;111.22;39.97;;;;;;;1.65;100.00;103384.38;5040054;28;20035;-78
2022/01/14 10:59:56;;;;;;;108.75;39.33;;;;;;;1.66;100.00;103373.28;5043386;28;20087;-78
2022/01/14 11:02:37;;;;;;;103.00;39.35;;;;;;;1.66;100.00;103367.34;5032332;28;20029;-77
2022/01/14 11:05:14;;;;;;;108.55;38.80;;;;;;;1.69;100.00;103362.13;5030178;28;20037;-78
2022/01/14 11:07:41;;;;;;;116.40;40.67;;;;;;;1.78;100.00;103366.19;5045731;28;20033;-78
2022/01/14 11:10:14;;;;;;;105.53;38.22;;;;;;;1.81;100.00;103373.78;5045341;28;20033;-77
2022/01/14 11:12:41;;;;;;;117.88;42.38;;;;;;;1.89;100.00;103367.63;5013549;28;20295;-78
2022/01/14 11:15:08;;;;;;;105.03;40.17;;;;;;;1.95;100.00;103361.50;5015854;28;20028;-78
2022/01/14 11:17:37;;;;;;;111.65;39.97;;;;;;;1.90;100.00;103361.63;5047144;28;20494;-78
2022/01/14 11:20:04;;;;;;;121.80;46.95;;;;;;;1.90;100.00;103350.53;5031018;28;20037;-78
2022/01/14 11:25:14;;;;;;;117.88;43.88;;;;;;;1.96;100.00;103347.84;5030241;28;20039;-78
2022/01/14 11:27:46;;;;;;;108.82;41.63;;;;;;;2.01;100.00;103343.44;5047142;28;20033;-78
2022/01/14 11:30:13;;;;;;;113.10;40.92;;;;;;;2.05;100.00;103350.16;5036265;28;20413;-78
2022/01/14 11:32:56;;;;;;;121.60;47.10;;;;;;;2.05;100.00;103355.28;5051643;28;20028;-78
2022/01/14 11:35:24;;;;;;;120.82;42.65;;;;;;;2.09;100.00;103354.34;5042111;28;20036;-77
2022/01/14 11:37:50;;;;;;;113.60;40.47;;;;;;;2.17;100.00;103356.72;5040604;28;20087;-77
2022/01/14 11:40:17;;;;;;;113.95;39.83;;;;;;;2.19;100.00;103356.69;5046417;28;20063;-78
2022/01/14 11:42:47;;;;;;;115.63;41.60;;;;;;;2.23;100.00;103355.72;5036778;28;20068;-77